createdAt,value
2018-08-04T00:00:33.521Z,9.30
2018-08-04T00:03:36.900Z,8.80
2018-08-04T00:06:40.249Z,8.93
2018-08-04T00:09:43.671Z,9.23
2018-08-04T00:12:48.920Z,8.63
2018-08-04T00:15:52.316Z,8.98
2018-08-04T00:18:55.699Z,9.90
2018-08-04T00:21:59.051Z,9.23
2018-08-04T00:25:02.458Z,9.70
2018-08-04T00:28:05.881Z,9.13
2018-08-04T00:31:09.244Z,9.85
2018-08-04T00:34:12.599Z,9.90
2018-08-04T00:37:15.932Z,10.43
2018-08-04T00:40:19.294Z,10.88
2018-08-04T00:43:22.691Z,9.50
2018-08-04T00:46:26.044Z,9.90
2018-08-04T00:49:29.415Z,9.65
2018-08-04T00:52:32.760Z,9.43
2018-08-04T00:55:36.110Z,9.55
2018-08-04T00:58:39.691Z,10.75
2018-08-04T01:01:43.291Z,9.50
2018-08-04T01:04:46.656Z,9.98
2018-08-04T01:07:50.005Z,10.40
2018-08-04T01:10:53.380Z,10.25
2018-08-04T01:13:56.768Z,10.38
2018-08-04T01:17:00.483Z,11.45
2018-08-04T01:20:05.236Z,10.10
2018-08-04T01:23:08.572Z,9.68
2018-08-04T01:26:11.967Z,10.30
2018-08-04T01:29:15.347Z,10.78
2018-08-04T01:32:18.704Z,11.05
2018-08-04T01:35:22.100Z,10.05
2018-08-04T01:38:25.448Z,10.32
2018-08-04T01:41:28.822Z,10.25
2018-08-04T01:44:32.188Z,9.98
2018-08-04T01:47:35.543Z,9.90
2018-08-04T01:50:38.918Z,10.53
2018-08-04T01:53:42.328Z,10.65
2018-08-04T01:56:45.700Z,10.05
2018-08-04T01:59:49.124Z,9.70
2018-08-04T02:02:52.501Z,10.13
2018-08-04T02:05:55.892Z,10.35
2018-08-04T02:08:59.319Z,9.60
2018-08-04T02:12:02.689Z,10.38
2018-08-04T02:15:06.217Z,10.38
2018-08-04T02:18:09.608Z,10.40
2018-08-04T02:21:13.042Z,10.23
2018-08-04T02:24:16.424Z,10.45
2018-08-04T02:27:19.833Z,11.40
2018-08-04T02:30:23.243Z,9.98
2018-08-04T02:33:26.634Z,11.18
2018-08-04T02:36:30.030Z,9.95
2018-08-04T02:39:33.449Z,11.50
2018-08-04T02:42:36.845Z,11.95
2018-08-04T02:45:40.250Z,12.05
2018-08-04T02:48:43.647Z,12.03
2018-08-04T02:51:47.057Z,11.68
2018-08-04T02:54:50.503Z,11.48
2018-08-04T02:57:53.916Z,11.95
2018-08-04T03:00:57.345Z,11.55
2018-08-04T03:04:00.720Z,11.03
2018-08-04T03:07:04.121Z,11.48
2018-08-04T03:10:07.593Z,11.10
2018-08-04T03:13:10.981Z,12.47
2018-08-04T03:16:14.393Z,12.10
2018-08-04T03:19:17.801Z,11.57
2018-08-04T03:22:21.230Z,11.48
2018-08-04T03:25:24.597Z,11.85
2018-08-04T03:28:28.037Z,11.95
2018-08-04T03:31:31.424Z,12.65
2018-08-04T03:34:34.813Z,11.73
2018-08-04T03:37:38.210Z,11.78
2018-08-04T03:40:41.624Z,12.05
2018-08-04T03:43:45.022Z,12.37
2018-08-04T03:46:48.415Z,12.43
2018-08-04T03:49:51.807Z,12.58
2018-08-04T03:52:55.264Z,12.88
2018-08-04T03:55:58.903Z,12.80
2018-08-04T03:59:02.307Z,11.93
2018-08-04T04:02:05.712Z,11.50
2018-08-04T04:05:09.093Z,11.18
2018-08-04T04:08:12.493Z,12.13
2018-08-04T04:11:15.912Z,12.13
2018-08-04T04:14:19.290Z,11.97
2018-08-04T04:17:22.661Z,13.10
2018-08-04T04:20:26.009Z,11.43
2018-08-04T04:23:29.432Z,11.65
2018-08-04T04:26:32.802Z,13.10
2018-08-04T04:29:36.200Z,11.70
2018-08-04T04:32:39.584Z,12.33
2018-08-04T04:35:42.970Z,12.90
2018-08-04T04:38:46.360Z,12.95
2018-08-04T04:41:49.732Z,12.53
2018-08-04T04:44:53.244Z,13.62
2018-08-04T04:47:56.628Z,12.55
2018-08-04T04:51:00.040Z,12.53
2018-08-04T04:54:03.708Z,13.90
2018-08-04T04:57:07.100Z,13.25
2018-08-04T05:00:10.476Z,14.68
2018-08-04T05:03:13.948Z,13.62
2018-08-04T05:06:17.333Z,14.40
2018-08-04T05:09:20.716Z,14.65
2018-08-04T05:12:24.104Z,13.60
2018-08-04T05:15:27.493Z,13.30
2018-08-04T05:18:30.876Z,13.48
2018-08-04T05:21:34.269Z,13.62
2018-08-04T05:24:37.656Z,13.45
2018-08-04T05:27:41.053Z,13.43
2018-08-04T05:30:44.415Z,13.95
2018-08-04T05:33:47.808Z,12.55
2018-08-04T05:36:51.176Z,14.07
2018-08-04T05:39:54.553Z,12.28
2018-08-04T05:42:58.054Z,13.03
2018-08-04T05:46:01.407Z,11.75
2018-08-04T05:49:04.868Z,13.38
2018-08-04T05:52:08.331Z,14.40
2018-08-04T05:55:11.756Z,14.07
2018-08-04T05:58:15.164Z,14.85
2018-08-04T06:01:18.512Z,15.30
2018-08-04T06:04:22.096Z,14.98
2018-08-04T06:07:25.464Z,15.43
2018-08-04T06:10:29.452Z,17.20
2018-08-04T06:13:32.856Z,17.07
2018-08-04T06:16:36.380Z,15.45
2018-08-04T06:19:39.825Z,15.40
2018-08-04T06:22:43.284Z,15.48
2018-08-04T06:25:46.668Z,15.05
2018-08-04T06:28:50.128Z,13.50
2018-08-04T06:31:53.472Z,15.15
2018-08-04T06:34:56.872Z,14.55
2018-08-04T06:38:00.203Z,13.62
2018-08-04T06:41:03.561Z,13.00
2018-08-04T06:44:08.297Z,12.55
2018-08-04T06:47:11.683Z,13.75
2018-08-04T06:50:15.145Z,13.62
2018-08-04T06:53:18.668Z,12.60
2018-08-04T06:56:22.031Z,13.58
2018-08-04T06:59:25.654Z,13.55
2018-08-04T07:02:29.036Z,13.10
2018-08-04T07:05:32.418Z,12.00
2018-08-04T07:08:36.037Z,11.95
2018-08-04T07:11:39.419Z,15.40
2018-08-04T07:14:42.777Z,12.23
2018-08-04T07:17:46.105Z,12.70
2018-08-04T07:20:49.485Z,11.40
2018-08-04T07:23:52.854Z,12.10
2018-08-04T07:26:56.237Z,12.43
2018-08-04T07:29:59.684Z,10.65
2018-08-04T07:33:03.028Z,11.38
2018-08-04T07:36:06.587Z,11.22
2018-08-04T07:39:10.860Z,10.82
2018-08-04T07:42:14.303Z,11.12
2018-08-04T07:45:17.487Z,13.20
2018-08-04T07:48:20.860Z,11.15
2018-08-04T07:51:24.216Z,12.05
2018-08-04T07:54:27.597Z,14.00
2018-08-04T07:57:31.099Z,14.20
2018-08-04T08:00:34.482Z,13.58
2018-08-04T08:03:37.816Z,14.35
2018-08-04T08:06:41.181Z,13.38
2018-08-04T08:09:44.509Z,14.03
2018-08-04T08:12:47.932Z,14.23
2018-08-04T08:15:51.296Z,13.75
2018-08-04T08:18:54.808Z,13.53
2018-08-04T08:21:58.166Z,14.90
2018-08-04T08:25:01.515Z,15.03
2018-08-04T08:28:04.991Z,14.95
2018-08-04T08:31:08.446Z,11.88
2018-08-04T08:34:11.894Z,11.48
2018-08-04T08:37:15.276Z,11.60
2018-08-04T08:40:18.694Z,12.07
2018-08-04T08:43:22.076Z,12.18
2018-08-04T08:46:25.466Z,12.15
2018-08-04T08:49:28.840Z,12.15
2018-08-04T08:52:32.257Z,11.50
2018-08-04T08:55:35.632Z,11.05
2018-08-04T08:58:39.060Z,10.53
2018-08-04T09:01:42.487Z,11.22
2018-08-04T09:04:45.986Z,11.15
2018-08-04T09:07:49.674Z,11.05
2018-08-04T09:10:53.048Z,11.78
2018-08-04T09:13:56.597Z,11.45
2018-08-04T09:17:00.169Z,11.33
2018-08-04T09:20:03.848Z,11.75
2018-08-04T09:23:07.310Z,11.08
2018-08-04T09:26:10.625Z,11.18
2018-08-04T09:29:13.998Z,11.28
2018-08-04T09:32:17.388Z,10.82
2018-08-04T09:35:20.744Z,11.12
2018-08-04T09:38:24.106Z,11.28
2018-08-04T09:41:27.498Z,10.53
2018-08-04T09:44:30.899Z,10.90
2018-08-04T09:47:34.261Z,10.53
2018-08-04T09:50:37.610Z,10.20
2018-08-04T09:53:40.992Z,10.38
2018-08-04T09:56:44.345Z,10.18
2018-08-04T09:59:47.709Z,9.83
2018-08-04T10:02:51.073Z,10.30
2018-08-04T10:05:54.489Z,9.80
2018-08-04T10:08:57.845Z,10.13
2018-08-04T10:12:01.495Z,10.43
2018-08-04T10:15:07.211Z,9.53
2018-08-04T10:18:10.646Z,9.48
2018-08-04T10:21:14.046Z,11.22
2018-08-04T10:24:17.454Z,9.50
2018-08-04T10:27:20.823Z,8.85
2018-08-04T10:30:24.148Z,10.50
2018-08-04T10:33:27.483Z,9.20
2018-08-04T10:36:30.841Z,9.48
2018-08-04T10:39:34.176Z,9.30
2018-08-04T10:42:37.535Z,8.38
2018-08-04T10:45:41.141Z,8.13
2018-08-04T10:48:44.584Z,8.65
2018-08-04T10:51:48.084Z,8.33
2018-08-04T10:54:51.438Z,7.60
2018-08-04T10:57:54.840Z,8.03
2018-08-04T11:00:58.410Z,7.83
2018-08-04T11:04:01.823Z,7.47
2018-08-04T11:07:05.196Z,7.47
2018-08-04T11:10:08.641Z,7.80
2018-08-04T11:13:12.009Z,8.70
2018-08-04T11:16:15.368Z,6.60
2018-08-04T11:19:18.728Z,6.20
2018-08-04T11:22:21.816Z,7.70
2018-08-04T11:25:25.214Z,7.70
2018-08-04T11:28:28.637Z,7.47
2018-08-04T11:31:32.016Z,6.75
2018-08-04T11:34:35.376Z,8.03
2018-08-04T11:37:38.817Z,8.45
2018-08-04T11:40:42.180Z,8.23
2018-08-04T11:43:45.639Z,7.90
2018-08-04T11:46:48.976Z,8.13
2018-08-04T11:49:52.320Z,6.92
2018-08-04T11:52:55.667Z,7.15
2018-08-04T11:55:59.008Z,5.47
2018-08-04T11:59:02.395Z,5.53
2018-08-04T12:02:05.811Z,5.90
2018-08-04T12:05:09.160Z,5.92
2018-08-04T12:08:12.833Z,5.67
2018-08-04T12:11:16.407Z,6.28
2018-08-04T12:14:19.745Z,5.92
2018-08-04T12:17:23.093Z,6.10
2018-08-04T12:20:26.659Z,5.62
2018-08-04T12:23:30.016Z,5.22
2018-08-04T12:26:33.472Z,6.08
2018-08-04T12:29:37.069Z,5.80
2018-08-04T12:32:40.595Z,5.15
2018-08-04T12:35:44.044Z,5.75
2018-08-04T12:38:47.649Z,5.80
2018-08-04T12:41:51.120Z,6.47
2018-08-04T12:44:54.516Z,5.83
2018-08-04T12:47:57.952Z,5.60
2018-08-04T12:51:02.572Z,5.20
2018-08-04T12:54:06.046Z,5.70
2018-08-04T12:57:09.516Z,5.53
2018-08-04T13:00:13.038Z,5.20
2018-08-04T13:03:16.406Z,5.55
2018-08-04T13:06:19.789Z,5.78
2018-08-04T13:09:23.205Z,5.17
2018-08-04T13:12:26.604Z,5.78
2018-08-04T13:15:29.984Z,6.05
2018-08-04T13:18:33.398Z,5.85
2018-08-04T13:21:36.908Z,5.78
2018-08-04T13:24:40.264Z,5.72
2018-08-04T13:27:43.676Z,5.60
2018-08-04T13:30:47.069Z,5.62
2018-08-04T13:33:50.436Z,5.62
2018-08-04T13:36:53.837Z,5.55
2018-08-04T13:39:57.185Z,5.47
2018-08-04T13:43:00.692Z,5.55
2018-08-04T13:46:04.065Z,5.95
2018-08-04T13:49:07.472Z,5.62
2018-08-04T13:52:10.840Z,5.72
2018-08-04T13:55:14.197Z,5.30
2018-08-04T13:58:17.661Z,5.33
2018-08-04T14:01:21.052Z,6.17
2018-08-04T14:04:24.411Z,5.40
2018-08-04T14:07:27.798Z,5.97
2018-08-04T14:10:31.204Z,5.70
2018-08-04T14:13:34.577Z,6.20
2018-08-04T14:16:37.977Z,5.92
2018-08-04T14:19:41.388Z,6.42
2018-08-04T14:22:44.807Z,7.08
2018-08-04T14:25:48.204Z,6.62
2018-08-04T14:28:51.692Z,7.10
2018-08-04T14:31:55.036Z,6.90
2018-08-04T14:34:58.428Z,6.83
2018-08-04T14:38:01.757Z,7.72
2018-08-04T14:41:05.192Z,6.62
2018-08-04T14:44:08.605Z,7.53
2018-08-04T14:47:11.976Z,7.47
2018-08-04T14:50:15.408Z,6.50
2018-08-04T14:53:18.760Z,7.65
2018-08-04T14:56:22.125Z,7.60
2018-08-04T14:59:25.476Z,7.78
2018-08-04T15:02:28.832Z,7.67
2018-08-04T15:05:32.173Z,7.58
2018-08-04T15:08:35.546Z,7.60
2018-08-04T15:11:39.345Z,7.37
2018-08-04T15:14:42.708Z,6.90
2018-08-04T15:17:46.052Z,8.10
2018-08-04T15:20:49.391Z,7.87
2018-08-04T15:23:52.773Z,7.20
2018-08-04T15:26:56.148Z,8.13
2018-08-04T15:29:59.527Z,6.80
2018-08-04T15:33:03.015Z,7.47
2018-08-04T15:36:06.482Z,8.60
2018-08-04T15:39:10.762Z,8.38
2018-08-04T15:42:14.163Z,8.90
2018-08-04T15:45:17.525Z,7.83
2018-08-04T15:48:20.898Z,8.80
2018-08-04T15:51:24.254Z,7.33
2018-08-04T15:54:27.625Z,6.85
2018-08-04T15:57:31.000Z,8.10
2018-08-04T16:00:34.383Z,7.17
2018-08-04T16:03:38.689Z,7.47
2018-08-04T16:06:42.363Z,7.50
2018-08-04T16:09:45.750Z,7.92
2018-08-04T16:12:49.217Z,6.97
2018-08-04T16:15:54.768Z,7.37
2018-08-04T16:18:59.946Z,7.42
2018-08-04T16:22:04.365Z,7.12
2018-08-04T16:25:07.772Z,7.10
2018-08-04T16:28:11.145Z,7.08
2018-08-04T16:31:14.505Z,7.25
2018-08-04T16:34:18.005Z,7.53
2018-08-04T16:37:21.345Z,6.60
2018-08-04T16:40:24.830Z,7.70
2018-08-04T16:43:28.191Z,7.30
2018-08-04T16:46:31.521Z,7.12
2018-08-04T16:49:34.877Z,6.50
2018-08-04T16:52:38.217Z,7.62
2018-08-04T16:55:41.580Z,8.00
2018-08-04T16:58:44.928Z,7.62
2018-08-04T17:01:48.259Z,8.78
2018-08-04T17:04:51.694Z,7.65
2018-08-04T17:07:55.012Z,7.65
2018-08-04T17:10:58.369Z,7.87
2018-08-04T17:14:01.744Z,8.10
2018-08-04T17:17:05.068Z,8.37
2018-08-04T17:20:08.415Z,8.78
2018-08-04T17:23:11.744Z,7.92
2018-08-04T17:26:15.084Z,6.87
2018-08-04T17:29:18.480Z,7.47
2018-08-04T17:32:21.840Z,7.00
2018-08-04T17:35:25.230Z,7.45
2018-08-04T17:38:28.584Z,8.18
2018-08-04T17:41:32.061Z,7.90
2018-08-04T17:44:35.621Z,8.30
2018-08-04T17:47:39.427Z,7.28
2018-08-04T17:50:42.862Z,7.05
2018-08-04T17:53:46.243Z,7.42
2018-08-04T17:56:49.667Z,7.22
2018-08-04T17:59:53.080Z,7.80
2018-08-04T18:02:56.501Z,7.28
2018-08-04T18:05:59.951Z,7.22
2018-08-04T18:09:04.087Z,6.85
2018-08-04T18:12:07.472Z,7.55
2018-08-04T18:15:10.869Z,7.08
2018-08-04T18:18:14.232Z,7.30
2018-08-04T18:21:17.612Z,8.10
2018-08-04T18:24:21.015Z,8.30
2018-08-04T18:27:24.435Z,7.83
2018-08-04T18:30:27.834Z,7.62
2018-08-04T18:33:31.228Z,7.40
2018-08-04T18:36:34.608Z,8.25
2018-08-04T18:39:37.979Z,7.97
2018-08-04T18:42:41.216Z,8.23
2018-08-04T18:45:44.747Z,8.40
2018-08-04T18:48:48.108Z,8.30
2018-08-04T18:51:51.476Z,9.13
2018-08-04T18:54:54.917Z,8.48
2018-08-04T18:57:58.316Z,8.68
2018-08-04T19:01:01.708Z,8.38
2018-08-04T19:04:05.209Z,8.10
2018-08-04T19:07:08.301Z,8.53
2018-08-04T19:10:11.789Z,8.38
2018-08-04T19:13:15.161Z,7.60
2018-08-04T19:16:18.584Z,8.75
2018-08-04T19:19:21.925Z,8.50
2018-08-04T19:22:25.357Z,8.35
2018-08-04T19:25:28.809Z,8.30
2018-08-04T19:28:32.288Z,8.53
2018-08-04T19:31:35.564Z,8.63
2018-08-04T19:34:38.908Z,9.28
2018-08-04T19:37:42.260Z,8.90
2018-08-04T19:40:45.620Z,8.93
2018-08-04T19:43:48.970Z,8.93
2018-08-04T19:46:52.330Z,8.88
2018-08-04T19:49:55.664Z,9.18
2018-08-04T19:52:59.031Z,8.83
2018-08-04T19:56:02.388Z,9.50
2018-08-04T19:59:05.970Z,9.03
2018-08-04T20:02:09.329Z,9.50
2018-08-04T20:05:12.677Z,8.70
2018-08-04T20:08:16.041Z,9.08
2018-08-04T20:11:19.392Z,10.93
2018-08-04T20:14:22.744Z,9.05
2018-08-04T20:17:26.103Z,9.90
2018-08-04T20:20:29.526Z,10.08
2018-08-04T20:23:32.916Z,9.28
2018-08-04T20:26:36.269Z,9.90
2018-08-04T20:29:39.683Z,9.45
2018-08-04T20:32:43.025Z,9.65
2018-08-04T20:35:46.380Z,9.08
2018-08-04T20:38:50.081Z,9.10
2018-08-04T20:41:53.505Z,8.75
2018-08-04T20:44:56.904Z,9.65
2018-08-04T20:48:00.241Z,10.25
2018-08-04T20:51:03.601Z,9.88
2018-08-04T20:54:07.209Z,10.20
2018-08-04T20:57:10.580Z,9.85
2018-08-04T21:00:13.940Z,9.85
2018-08-04T21:03:17.298Z,9.50
2018-08-04T21:06:20.648Z,9.33
2018-08-04T21:09:24.125Z,9.83
2018-08-04T21:12:27.490Z,10.20
2018-08-04T21:15:30.860Z,9.88
2018-08-04T21:18:34.578Z,10.13
2018-08-04T21:21:37.937Z,10.40
2018-08-04T21:24:41.308Z,10.13
2018-08-04T21:27:44.771Z,9.90
2018-08-04T21:30:48.290Z,10.80
2018-08-04T21:33:51.710Z,10.28
2018-08-04T21:36:55.132Z,10.50
2018-08-04T21:39:58.556Z,10.20
2018-08-04T21:43:02.009Z,10.20
2018-08-04T21:46:05.397Z,9.75
2018-08-04T21:49:08.825Z,11.63
2018-08-04T21:52:12.220Z,10.13
2018-08-04T21:55:15.645Z,10.38
2018-08-04T21:58:19.036Z,9.85
2018-08-04T22:01:22.484Z,11.10
2018-08-04T22:04:26.474Z,10.03
2018-08-04T22:07:43.479Z,10.20
2018-08-04T22:10:46.841Z,9.88
2018-08-04T22:13:50.261Z,10.60
2018-08-04T22:16:54.427Z,11.03
2018-08-04T22:19:57.853Z,10.63
2018-08-04T22:23:01.245Z,10.53
2018-08-04T22:26:04.698Z,10.68
2018-08-04T22:29:08.083Z,11.08
2018-08-04T22:32:11.472Z,11.15
2018-08-04T22:35:14.918Z,10.85
2018-08-04T22:38:18.289Z,10.75
2018-08-04T22:41:21.748Z,11.15
2018-08-04T22:44:25.053Z,11.63
2018-08-04T22:47:28.414Z,11.22
2018-08-04T22:50:31.805Z,12.13
2018-08-04T22:53:35.408Z,11.35
2018-08-04T22:56:38.752Z,11.78
2018-08-04T22:59:42.247Z,11.60
2018-08-04T23:02:45.596Z,12.10
2018-08-04T23:05:48.972Z,11.40
2018-08-04T23:08:52.335Z,11.97
2018-08-04T23:11:55.697Z,11.83
2018-08-04T23:14:59.060Z,11.05
2018-08-04T23:18:02.451Z,11.08
2018-08-04T23:21:06.077Z,11.78
2018-08-04T23:24:09.472Z,11.75
2018-08-04T23:27:12.988Z,12.18
2018-08-04T23:30:16.452Z,11.10
2018-08-04T23:33:19.819Z,10.82
2018-08-04T23:36:23.216Z,11.15
2018-08-04T23:39:26.616Z,10.32
2018-08-04T23:42:29.993Z,10.08
2018-08-04T23:45:33.413Z,10.63
2018-08-04T23:48:36.817Z,10.45
2018-08-04T23:51:40.252Z,10.15
2018-08-04T23:54:43.656Z,9.45
2018-08-04T23:57:47.077Z,8.73
